Time;durP1;ratioP1;P1;durP2;ratioP2;P2;SDS_P1;SDS_P2;PMS_P1;PMS_P2;Temp;Humidity;BMP_temperature;BMP_pressure;BME280_temperature;BME280_humidity;BME280_pressure;Samples;Min_cycle;Max_cycle;Signal;HPM_P1;HPM_P2
2020/12/10 05:32:31;;;;;;;1999.90;999.90;;;4.90;99.90;;;;;;5077367;23;20319;-76
2020/12/10 05:34:59;;;;;;;1999.90;999.90;;;4.90;99.90;;;;;;4975984;28;20256;-77
2020/12/10 05:37:27;;;;;;;1999.90;999.90;;;4.70;99.90;;;;;;4975794;28;20205;-78
2020/12/10 05:39:59;;;;;;;1999.90;999.90;;;4.60;99.90;;;;;;4975396;28;20204;-77
2020/12/10 05:42:34;;;;;;;1999.90;999.90;;;4.60;99.90;;;;;;4975511;28;20229;-76
2020/12/10 05:45:09;;;;;;;1999.90;999.90;;;4.60;99.90;;;;;;4976837;28;20279;-77
2020/12/10 05:47:41;;;;;;;1999.90;999.90;;;4.60;99.90;;;;;;4976132;28;20631;-77
2020/12/10 05:50:11;;;;;;;1999.90;999.90;;;4.60;99.90;;;;;;4975689;28;20205;-79
2020/12/10 05:52:43;;;;;;;1999.90;999.90;;;4.60;99.90;;;;;;4974917;28;20601;-76
2020/12/10 05:55:11;;;;;;;1999.90;999.90;;;4.50;99.90;;;;;;4974953;28;20240;-76
2020/12/10 05:57:42;;;;;;;1999.90;999.90;;;4.50;99.90;;;;;;4972844;28;21035;-75
2020/12/10 06:00:09;;;;;;;1999.90;999.90;;;4.60;99.90;;;;;;4972656;28;20248;-76
2020/12/10 06:02:36;;;;;;;1999.90;999.90;;;4.70;99.90;;;;;;4971845;28;20201;-76
2020/12/10 06:05:04;;;;;;;1999.90;999.90;;;4.70;99.90;;;;;;4974264;28;20360;-76
2020/12/10 06:07:31;;;;;;;1999.90;999.90;;;4.60;99.90;;;;;;4983448;28;20204;-77
2020/12/10 06:09:59;;;;;;;1999.90;999.90;;;4.70;99.90;;;;;;4972696;28;20197;-77
2020/12/10 06:12:26;;;;;;;1999.90;999.90;;;4.60;99.90;;;;;;4973207;28;20228;-78
2020/12/10 06:14:54;;;;;;;1999.90;999.90;;;4.60;99.90;;;;;;4970070;28;20201;-76
2020/12/10 06:17:22;;;;;;;1999.90;999.90;;;4.50;99.90;;;;;;4974058;28;20513;-77
2020/12/10 06:19:49;;;;;;;1999.90;999.90;;;4.40;99.90;;;;;;4974384;28;20271;-77
2020/12/10 06:22:27;;;;;;;1999.90;999.90;;;4.40;99.90;;;;;;4974641;28;20224;-77
2020/12/10 06:24:56;;;;;;;1999.90;999.90;;;4.40;99.90;;;;;;4974378;28;20255;-77
2020/12/10 06:27:28;;;;;;;1999.90;999.90;;;4.40;99.90;;;;;;4974182;28;20216;-77
2020/12/10 06:30:11;;;;;;;1999.90;999.90;;;4.40;99.90;;;;;;4973858;28;20616;-77
2020/12/10 06:32:42;;;;;;;1999.90;999.90;;;4.40;99.90;;;;;;4972569;28;20240;-77
2020/12/10 06:35:31;;;;;;;1999.90;999.90;;;4.40;99.90;;;;;;4973872;28;20247;-77
2020/12/10 06:37:59;;;;;;;1999.90;999.90;;;4.50;99.90;;;;;;4973942;28;20727;-77
2020/12/10 06:40:34;;;;;;;1999.90;999.90;;;4.40;99.90;;;;;;4974035;28;20259;-77
2020/12/10 06:43:03;;;;;;;1999.90;999.90;;;4.50;99.90;;;;;;4973202;28;20192;-77
2020/12/10 11:31:43;;;;;;;1999.90;999.90;;;6.00;99.90;;;;;;5368595;23;20252;-79
2020/12/10 11:34:10;;;;;;;1999.90;999.90;;;6.00;99.90;;;;;;4964641;29;20225;-81
2020/12/10 11:36:37;;;;;;;1999.90;999.90;;;5.90;99.90;;;;;;4964279;29;20201;-78
2020/12/10 11:39:04;;;;;;;1999.90;999.90;;;6.00;99.90;;;;;;4963852;29;20229;-79
2020/12/10 11:41:31;;;;;;;1999.90;999.90;;;6.00;99.90;;;;;;4964004;28;20253;-79
2020/12/10 11:43:58;;;;;;;1999.90;999.90;;;6.00;99.90;;;;;;4964767;29;20209;-79
2020/12/10 11:46:25;;;;;;;1999.90;999.90;;;5.90;99.90;;;;;;4964158;29;20276;-78
2020/12/10 11:48:53;;;;;;;1999.90;999.90;;;5.70;99.90;;;;;;4964760;29;20233;-79
2020/12/10 11:51:20;;;;;;;1999.90;999.90;;;5.60;99.90;;;;;;4964662;28;20240;-79
2020/12/10 11:53:48;;;;;;;1999.90;999.90;;;5.70;99.90;;;;;;4962544;29;20205;-77
2020/12/10 11:56:15;;;;;;;1999.90;999.90;;;5.80;99.90;;;;;;4960360;29;20229;-78
2020/12/10 11:58:42;;;;;;;1999.90;999.90;;;5.90;99.90;;;;;;4961064;29;20217;-80
2020/12/10 12:01:10;;;;;;;1999.90;999.90;;;5.80;99.90;;;;;;4960523;28;20261;-78
2020/12/10 12:03:37;;;;;;;1999.90;999.90;;;5.70;99.90;;;;;;4960215;28;20202;-79
2020/12/10 12:06:05;;;;;;;1999.90;999.90;;;5.70;99.90;;;;;;4940334;29;20221;-79
2020/12/10 12:08:35;;;;;;;1999.90;999.90;;;5.80;99.90;;;;;;4940021;29;20214;-78
2020/12/10 12:11:02;;;;;;;1999.90;999.90;;;5.70;99.90;;;;;;4942665;29;20229;-78
2020/12/10 12:13:30;;;;;;;1999.90;999.90;;;5.60;99.90;;;;;;4942190;29;20864;-79
2020/12/10 12:15:57;;;;;;;1999.90;999.90;;;5.40;99.90;;;;;;4942278;29;20202;-80
2020/12/10 12:18:25;;;;;;;1999.90;999.90;;;5.40;99.90;;;;;;4941242;29;20253;-81
2020/12/10 12:20:52;;;;;;;1999.90;999.90;;;5.40;99.90;;;;;;4940997;29;20286;-81
2020/12/10 12:23:20;;;;;;;1999.90;999.90;;;5.30;99.90;;;;;;4944495;29;20210;-79
2020/12/10 12:25:47;;;;;;;1999.90;999.90;;;5.40;99.90;;;;;;4948064;29;20225;-80
2020/12/10 12:28:14;;;;;;;1999.90;999.90;;;5.50;99.90;;;;;;4952591;29;20204;-81
2020/12/10 12:30:41;;;;;;;1999.90;999.90;;;5.30;99.90;;;;;;4962810;29;20295;-80
2020/12/10 12:33:08;;;;;;;1999.90;999.90;;;5.30;99.90;;;;;;4964102;29;20268;-78
2020/12/10 12:35:35;;;;;;;1999.90;999.90;;;5.20;99.90;;;;;;4958442;29;20526;-79
2020/12/10 12:38:03;;;;;;;1999.90;999.90;;;5.30;99.90;;;;;;4953881;29;20726;-79
2020/12/10 12:40:31;;;;;;;1999.90;999.90;;;5.40;99.90;;;;;;4959956;29;20197;-79
2020/12/10 12:43:00;;;;;;;1999.90;999.90;;;5.50;99.90;;;;;;4951944;29;20194;-79
2020/12/10 12:45:27;;;;;;;1999.90;999.90;;;5.40;99.90;;;;;;4951357;29;20222;-79
2020/12/10 12:47:56;;;;;;;1999.90;999.90;;;5.30;99.90;;;;;;4946135;29;20217;-81
2020/12/10 12:50:23;;;;;;;1999.90;999.90;;;5.30;99.90;;;;;;4946527;29;20209;-79
2020/12/10 12:52:51;;;;;;;1999.90;999.90;;;5.30;99.90;;;;;;4946554;29;20205;-79
2020/12/10 12:55:18;;;;;;;1999.90;999.90;;;5.30;99.90;;;;;;4946534;29;20634;-79
2020/12/10 12:57:45;;;;;;;1999.90;999.90;;;5.30;99.90;;;;;;4946426;29;20202;-79
2020/12/10 13:00:12;;;;;;;1999.90;999.90;;;5.30;99.90;;;;;;4953719;29;20619;-79
2020/12/10 13:02:41;;;;;;;1999.90;999.90;;;5.00;99.90;;;;;;4966708;29;20205;-79
2020/12/10 13:05:07;;;;;;;1999.90;999.90;;;4.90;99.90;;;;;;4965478;29;20209;-79
2020/12/10 13:07:34;;;;;;;1999.90;999.90;;;4.90;99.90;;;;;;4964455;29;20201;-79
2020/12/10 13:10:01;;;;;;;1999.90;999.90;;;4.80;99.90;;;;;;4963715;29;20260;-79
2020/12/10 13:12:37;;;;;;;1999.90;999.90;;;5.00;99.90;;;;;;4946919;29;20273;-79
2020/12/10 13:15:06;;;;;;;1999.90;999.90;;;5.00;99.90;;;;;;4946863;29;20263;-79
2020/12/10 13:17:33;;;;;;;1999.90;999.90;;;5.10;99.90;;;;;;4946313;29;20559;-79
2020/12/10 13:20:00;;;;;;;1999.90;999.90;;;5.00;99.90;;;;;;4946210;29;20241;-79
2020/12/10 13:22:27;;;;;;;1999.90;999.90;;;4.90;99.90;;;;;;4946272;29;20225;-79
2020/12/10 13:24:54;;;;;;;1999.90;999.90;;;4.90;99.90;;;;;;4946794;29;20213;-79
2020/12/10 13:27:21;;;;;;;1999.90;999.90;;;5.00;99.90;;;;;;4946362;29;20237;-79
2020/12/10 13:29:49;;;;;;;1999.90;999.90;;;5.00;99.90;;;;;;4946206;29;20202;-79
2020/12/10 13:32:17;;;;;;;1999.90;999.90;;;5.10;99.90;;;;;;4946406;29;20238;-79
2020/12/10 13:34:44;;;;;;;1999.90;999.90;;;5.00;99.90;;;;;;4946786;29;20214;-79
2020/12/10 13:37:10;;;;;;;1999.90;999.90;;;5.10;99.90;;;;;;4945839;29;20574;-79
2020/12/10 13:39:38;;;;;;;1999.90;999.90;;;5.00;99.90;;;;;;4946558;29;20230;-79
2020/12/10 13:42:05;;;;;;;1999.90;999.90;;;4.90;99.90;;;;;;4945957;29;20234;-79
2020/12/10 13:44:32;;;;;;;1999.90;999.90;;;4.90;99.90;;;;;;4949795;29;20202;-79
2020/12/10 13:46:59;;;;;;;1999.90;999.90;;;5.00;99.90;;;;;;4965920;29;20633;-79
2020/12/10 13:49:27;;;;;;;1999.90;999.90;;;4.90;99.90;;;;;;4965210;29;20577;-79
2020/12/10 13:51:54;;;;;;;1999.90;999.90;;;4.80;99.90;;;;;;4965488;29;20229;-78
2020/12/10 13:54:21;;;;;;;1999.90;999.90;;;4.90;99.90;;;;;;4965950;29;20567;-79
2020/12/10 13:56:50;;;;;;;1999.90;999.90;;;4.80;99.90;;;;;;4967034;29;20221;-79
2020/12/10 13:59:18;;;;;;;1999.90;999.90;;;4.80;99.90;;;;;;4966230;29;20205;-79
2020/12/10 14:01:46;;;;;;;1999.90;999.90;;;4.90;99.90;;;;;;4962553;29;20261;-76
2020/12/10 14:04:13;;;;;;;1999.90;999.90;;;5.00;99.90;;;;;;4955973;29;20239;-76
2020/12/10 14:06:41;;;;;;;1999.90;999.90;;;4.90;99.90;;;;;;4956074;29;20257;-77
2020/12/10 14:09:08;;;;;;;1999.90;999.90;;;4.80;99.90;;;;;;4962068;29;20205;-81
2020/12/10 14:11:35;;;;;;;1999.90;999.90;;;4.80;99.90;;;;;;4960722;29;20253;-77
2020/12/10 14:14:03;;;;;;;1999.90;999.90;;;4.70;99.90;;;;;;4960501;29;20213;-78
2020/12/10 14:16:30;;;;;;;1999.90;999.90;;;4.50;99.90;;;;;;4956914;29;20209;-74
2020/12/10 14:18:58;;;;;;;1999.90;999.90;;;4.30;99.90;;;;;;4948100;29;20689;-81
2020/12/10 14:21:25;;;;;;;1999.90;999.90;;;4.40;99.90;;;;;;4940543;29;20797;-81
2020/12/10 14:23:53;;;;;;;1999.90;999.90;;;4.20;99.90;;;;;;4940462;29;20210;-81
2020/12/10 14:26:20;;;;;;;1999.90;999.90;;;4.20;99.90;;;;;;4940265;29;20218;-79
2020/12/10 14:28:47;;;;;;;1999.90;999.90;;;4.30;99.90;;;;;;4941898;29;20206;-81
2020/12/10 14:31:14;;;;;;;1999.90;999.90;;;4.30;99.90;;;;;;4940453;29;20229;-82
2020/12/10 14:33:42;;;;;;;1999.90;999.90;;;4.50;99.90;;;;;;4941393;29;20325;-76
2020/12/10 14:36:09;;;;;;;1999.90;999.90;;;4.50;99.90;;;;;;4940132;29;20217;-81
2020/12/10 14:38:36;;;;;;;1999.90;999.90;;;4.40;99.90;;;;;;4939006;29;20214;-78
2020/12/10 14:41:05;;;;;;;1999.90;999.90;;;4.50;99.90;;;;;;4942247;29;20233;-78
2020/12/10 14:43:32;;;;;;;1999.90;999.90;;;4.50;99.90;;;;;;4943029;29;20633;-77
2020/12/10 14:45:59;;;;;;;1999.90;999.90;;;4.60;99.90;;;;;;4943368;29;20281;-78
2020/12/10 14:48:26;;;;;;;1999.90;999.90;;;4.60;99.90;;;;;;4941159;29;20210;-78
2020/12/10 14:50:53;;;;;;;1999.90;999.90;;;4.60;99.90;;;;;;4941694;29;20277;-78
2020/12/10 14:53:20;;;;;;;1999.90;999.90;;;4.70;99.90;;;;;;4942290;29;20265;-77
2020/12/10 14:55:47;;;;;;;1999.90;999.90;;;4.70;99.90;;;;;;4943031;29;20248;-78
2020/12/10 14:58:15;;;;;;;1999.90;999.90;;;4.70;99.90;;;;;;4942334;29;20210;-77
2020/12/10 15:00:42;;;;;;;1999.90;999.90;;;4.70;99.90;;;;;;4941046;29;20226;-78
2020/12/10 15:03:10;;;;;;;1999.90;999.90;;;4.70;99.90;;;;;;4938526;29;20218;-77
2020/12/10 15:05:37;;;;;;;1999.90;999.90;;;4.60;99.90;;;;;;4936086;29;20221;-76
2020/12/10 15:08:04;;;;;;;1999.90;999.90;;;4.60;99.90;;;;;;4936354;29;20758;-76
2020/12/10 15:10:31;;;;;;;1999.90;999.90;;;4.60;99.90;;;;;;4938665;29;20225;-78
2020/12/10 15:12:58;;;;;;;1999.90;999.90;;;4.60;99.90;;;;;;4937303;29;20210;-78
2020/12/10 15:15:26;;;;;;;1999.90;999.90;;;4.60;99.90;;;;;;4938460;29;20252;-74
2020/12/10 15:17:53;;;;;;;1999.90;999.90;;;4.60;99.90;;;;;;4945748;29;20280;-73
2020/12/10 15:20:20;;;;;;;1999.90;999.90;;;4.70;99.90;;;;;;4953795;28;20213;-74
2020/12/10 15:22:47;;;;;;;1999.90;999.90;;;4.60;99.90;;;;;;4953777;29;20692;-73
2020/12/10 15:25:14;;;;;;;1999.90;999.90;;;4.60;99.90;;;;;;4953628;29;20264;-74
2020/12/10 15:27:40;;;;;;;1999.90;999.90;;;4.70;99.90;;;;;;4953597;29;20225;-73
2020/12/10 15:30:07;;;;;;;1999.90;999.90;;;4.60;99.90;;;;;;4953994;29;20205;-76
2020/12/10 15:32:37;;;;;;;1999.90;999.90;;;4.60;99.90;;;;;;4953734;28;20324;-74
2020/12/10 15:35:04;;;;;;;1999.90;999.90;;;4.50;99.90;;;;;;4953655;29;20213;-74
2020/12/10 15:37:32;;;;;;;1999.90;999.90;;;4.50;99.90;;;;;;4953552;29;20225;-74
2020/12/10 15:39:59;;;;;;;1999.90;999.90;;;4.40;99.90;;;;;;4953908;29;20284;-74
2020/12/10 15:42:26;;;;;;;1999.90;999.90;;;4.40;99.90;;;;;;4954226;28;20313;-74
2020/12/10 15:44:52;;;;;;;1999.90;999.90;;;4.40;99.90;;;;;;4953822;29;20209;-76
2020/12/10 15:47:20;;;;;;;1999.90;999.90;;;4.50;99.90;;;;;;4953609;29;20633;-75
2020/12/10 15:49:48;;;;;;;1999.90;999.90;;;4.40;99.90;;;;;;4954138;29;20627;-75
2020/12/10 15:52:15;;;;;;;1999.90;999.90;;;4.40;99.90;;;;;;4953670;28;20221;-75
2020/12/10 15:54:43;;;;;;;1999.90;999.90;;;4.50;99.90;;;;;;4953955;29;20209;-75
2020/12/10 15:57:10;;;;;;;1999.90;999.90;;;4.40;99.90;;;;;;4953462;29;20205;-75
2020/12/10 15:59:37;;;;;;;1999.90;999.90;;;4.50;99.90;;;;;;4953349;29;20205;-75
2020/12/10 16:02:04;;;;;;;1999.90;999.90;;;4.70;99.90;;;;;;4950235;28;20225;-76
2020/12/10 16:04:31;;;;;;;1999.90;999.90;;;4.70;99.90;;;;;;4953691;29;20397;-75
2020/12/10 16:06:59;;;;;;;1999.90;999.90;;;4.70;99.90;;;;;;4952032;29;20280;-75
2020/12/10 16:09:26;;;;;;;1999.90;999.90;;;4.80;99.90;;;;;;4934542;29;20210;-76
2020/12/10 16:11:53;;;;;;;1999.90;999.90;;;4.70;99.90;;;;;;4934233;29;20221;-74
2020/12/10 16:14:19;;;;;;;1999.90;999.90;;;4.70;99.90;;;;;;4934510;29;20202;-74
2020/12/10 16:16:46;;;;;;;1999.90;999.90;;;4.60;99.90;;;;;;4934348;29;20202;-77
2020/12/10 16:19:13;;;;;;;1999.90;999.90;;;4.60;99.90;;;;;;4933867;29;20742;-75
2020/12/10 16:21:40;;;;;;;1999.90;999.90;;;4.60;99.90;;;;;;4934292;29;20230;-75
2020/12/10 16:24:08;;;;;;;1999.90;999.90;;;4.50;99.90;;;;;;4934416;29;20206;-75
2020/12/10 16:26:35;;;;;;;1999.90;999.90;;;4.50;99.90;;;;;;4934048;29;20226;-76
2020/12/10 16:29:02;;;;;;;1999.90;999.90;;;4.40;99.90;;;;;;4934462;29;20345;-76
2020/12/10 16:31:30;;;;;;;1999.90;999.90;;;4.40;99.90;;;;;;4933852;29;20367;-74
2020/12/10 16:33:57;;;;;;;1999.90;999.90;;;4.30;99.90;;;;;;4933949;29;20210;-73
2020/12/10 16:36:24;;;;;;;1999.90;999.90;;;4.20;99.90;;;;;;4934260;29;20209;-75
2020/12/10 16:38:51;;;;;;;1999.90;999.90;;;4.20;99.90;;;;;;4933753;29;20237;-75
2020/12/10 16:41:31;;;;;;;1999.90;999.90;;;4.20;99.90;;;;;;4934215;29;20268;-74
2020/12/10 16:43:58;;;;;;;1999.90;999.90;;;4.30;99.90;;;;;;4934052;29;20206;-75
2020/12/10 16:46:25;;;;;;;1999.90;999.90;;;4.30;99.90;;;;;;4933614;29;20285;-75
2020/12/10 16:48:52;;;;;;;1999.90;999.90;;;4.30;99.90;;;;;;4933997;29;20267;-74
2020/12/10 16:51:19;;;;;;;1999.90;999.90;;;4.20;99.90;;;;;;4933819;29;20719;-74
2020/12/10 16:53:46;;;;;;;1999.90;999.90;;;4.20;99.90;;;;;;4935455;29;20206;-74
2020/12/10 16:56:15;;;;;;;1999.90;999.90;;;4.20;99.90;;;;;;4937529;29;20206;-74
2020/12/10 16:58:48;;;;;;;1999.90;999.90;;;4.20;99.90;;;;;;4940308;29;20205;-81
2020/12/10 17:01:15;;;;;;;1999.90;999.90;;;4.30;99.90;;;;;;4939942;29;20707;-81
2020/12/10 17:03:42;;;;;;;1999.90;999.90;;;4.20;99.90;;;;;;4939407;29;20206;-82
2020/12/10 17:06:28;;;;;;;1999.90;999.90;;;4.20;99.90;;;;;;4942252;29;20225;-80
2020/12/10 17:08:55;;;;;;;1999.90;999.90;;;4.30;99.90;;;;;;4944835;29;20273;-77
2020/12/10 17:11:24;;;;;;;1999.90;999.90;;;4.30;99.90;;;;;;4939190;29;20652;-79
2020/12/10 17:13:52;;;;;;;1999.90;999.90;;;4.10;99.90;;;;;;4939451;29;20206;-80
2020/12/10 17:16:19;;;;;;;1999.90;999.90;;;4.10;99.90;;;;;;4938335;29;20239;-80
2020/12/10 17:18:47;;;;;;;1999.90;999.90;;;4.00;99.90;;;;;;4938486;29;20248;-79
2020/12/10 17:21:19;;;;;;;1999.90;999.90;;;4.10;99.90;;;;;;4939003;29;20252;-77
2020/12/10 17:23:45;;;;;;;1999.90;999.90;;;4.20;99.90;;;;;;4942866;29;20206;-80
2020/12/10 17:26:15;;;;;;;1999.90;999.90;;;4.10;99.90;;;;;;4939942;29;20264;-77
2020/12/10 17:28:42;;;;;;;1999.90;999.90;;;4.30;99.90;;;;;;4938538;29;20210;-79
2020/12/10 17:31:13;;;;;;;1999.90;999.90;;;4.30;99.90;;;;;;4938121;29;20238;-79
2020/12/10 17:33:40;;;;;;;1999.90;999.90;;;4.40;99.90;;;;;;4938194;29;20209;-79
2020/12/10 17:36:07;;;;;;;1999.90;999.90;;;4.40;99.90;;;;;;4938535;29;20653;-80
2020/12/10 17:38:33;;;;;;;1999.90;999.90;;;4.40;99.90;;;;;;4937590;29;20203;-77
2020/12/10 17:41:00;;;;;;;1999.90;999.90;;;4.50;99.90;;;;;;4937763;29;20383;-78
2020/12/10 17:43:27;;;;;;;1999.90;999.90;;;4.50;99.90;;;;;;4937913;29;20206;-76
2020/12/10 17:45:54;;;;;;;1999.90;999.90;;;4.30;99.90;;;;;;4947860;28;20421;-75
2020/12/10 17:48:22;;;;;;;1999.90;999.90;;;4.30;99.90;;;;;;4966368;28;20229;-75
2020/12/10 17:50:49;;;;;;;1999.90;999.90;;;4.30;99.90;;;;;;4974781;28;20224;-76
2020/12/10 17:53:16;;;;;;;1999.90;999.90;;;4.20;99.90;;;;;;4975051;28;20279;-77
2020/12/10 17:55:43;;;;;;;1999.90;999.90;;;4.30;99.90;;;;;;4975403;28;20240;-77
2020/12/10 17:58:09;;;;;;;1999.90;999.90;;;4.40;99.90;;;;;;4975185;28;20259;-78
2020/12/10 18:00:36;;;;;;;1999.90;999.90;;;4.10;99.90;;;;;;4974541;28;20220;-77
2020/12/10 18:03:03;;;;;;;1999.90;999.90;;;4.00;99.90;;;;;;4974336;28;20204;-78
2020/12/10 18:05:31;;;;;;;1999.90;999.90;;;4.10;99.90;;;;;;4974805;28;20646;-79
2020/12/10 18:07:58;;;;;;;1999.90;999.90;;;4.00;99.90;;;;;;4966823;28;20217;-77
2020/12/10 18:10:25;;;;;;;1999.90;999.90;;;4.00;99.90;;;;;;4952526;28;20193;-78
2020/12/10 18:12:52;;;;;;;1999.90;999.90;;;4.00;99.90;;;;;;4948651;29;20206;-78
2020/12/10 18:15:19;;;;;;;1999.90;999.90;;;4.00;99.90;;;;;;4957862;29;20248;-77
2020/12/10 18:17:46;;;;;;;1999.90;999.90;;;4.00;99.90;;;;;;4955092;29;20201;-77
2020/12/10 18:20:13;;;;;;;1999.90;999.90;;;3.90;99.90;;;;;;4945570;29;20253;-77
2020/12/10 18:22:41;;;;;;;1999.90;999.90;;;3.90;99.90;;;;;;4935907;29;20206;-75
2020/12/10 18:25:07;;;;;;;1999.90;999.90;;;4.00;99.90;;;;;;4936122;29;20209;-75
2020/12/10 18:27:34;;;;;;;1999.90;999.90;;;3.90;99.90;;;;;;4935942;29;20645;-75
2020/12/10 18:30:01;;;;;;;1999.90;999.90;;;3.70;99.90;;;;;;4935834;29;20266;-74
2020/12/10 18:32:31;;;;;;;1999.90;999.90;;;3.80;99.90;;;;;;4935543;29;20233;-75
2020/12/10 18:34:58;;;;;;;1999.90;999.90;;;3.90;99.90;;;;;;4936018;29;20195;-75
2020/12/10 18:37:26;;;;;;;1999.90;999.90;;;3.90;99.90;;;;;;4935763;29;20256;-74
2020/12/10 18:39:53;;;;;;;1999.90;999.90;;;3.90;99.90;;;;;;4935456;29;20559;-74
2020/12/10 18:42:21;;;;;;;1999.90;999.90;;;4.00;99.90;;;;;;4935422;29;20570;-74
2020/12/10 18:44:48;;;;;;;1999.90;999.90;;;4.10;99.90;;;;;;4935699;29;20622;-75
2020/12/10 18:47:16;;;;;;;1999.90;999.90;;;4.20;99.90;;;;;;4935291;29;20230;-75
2020/12/10 18:49:43;;;;;;;1999.90;999.90;;;4.30;99.90;;;;;;4935477;29;20264;-75
2020/12/10 18:52:10;;;;;;;1999.90;999.90;;;4.30;99.90;;;;;;4936135;29;20222;-76
2020/12/10 18:54:37;;;;;;;1999.90;999.90;;;4.30;99.90;;;;;;4938190;29;20202;-75
2020/12/10 18:57:06;;;;;;;1999.90;999.90;;;4.30;99.90;;;;;;4935093;29;20209;-75
2020/12/10 18:59:33;;;;;;;1999.90;999.90;;;4.30;99.90;;;;;;4935332;29;20659;-76
2020/12/10 19:02:02;;;;;;;1999.90;999.90;;;4.20;99.90;;;;;;4937282;29;20237;-78
2020/12/10 19:04:29;;;;;;;1999.90;999.90;;;4.20;99.90;;;;;;4944540;28;20245;-75
2020/12/10 19:06:58;;;;;;;1999.90;999.90;;;4.20;99.90;;;;;;4941027;29;20271;-75
2020/12/10 19:09:26;;;;;;;1999.90;999.90;;;4.10;99.90;;;;;;4942812;29;20198;-77
2020/12/10 19:11:53;;;;;;;1999.90;999.90;;;4.20;99.90;;;;;;4944983;28;20276;-76
2020/12/10 19:14:20;;;;;;;1999.90;999.90;;;4.30;99.90;;;;;;4943939;29;20209;-76
2020/12/10 19:16:47;;;;;;;1999.90;999.90;;;4.40;99.90;;;;;;4942903;28;20198;-78
2020/12/10 19:19:14;;;;;;;1999.90;999.90;;;4.40;99.90;;;;;;4944054;29;20229;-74
2020/12/10 19:21:41;;;;;;;1999.90;999.90;;;4.40;99.90;;;;;;4943256;28;20218;-75
2020/12/10 19:24:08;;;;;;;1999.90;999.90;;;4.30;99.90;;;;;;4941272;29;20210;-76
2020/12/10 19:26:34;;;;;;;1999.90;999.90;;;4.50;99.90;;;;;;4944550;29;20730;-75
2020/12/10 19:29:01;;;;;;;1999.90;999.90;;;4.20;99.90;;;;;;4937191;29;20242;-78
2020/12/10 19:31:29;;;;;;;1999.90;999.90;;;4.30;99.90;;;;;;4936073;29;20229;-81
2020/12/10 19:33:56;;;;;;;1999.90;999.90;;;4.40;99.90;;;;;;4935074;29;20213;-76
2020/12/10 19:36:24;;;;;;;1999.90;999.90;;;4.20;99.90;;;;;;4934761;29;20237;-78
2020/12/10 19:38:51;;;;;;;1999.90;999.90;;;4.20;99.90;;;;;;4935049;29;20202;-77
2020/12/10 19:41:18;;;;;;;1999.90;999.90;;;4.20;99.90;;;;;;4934948;29;20782;-77
2020/12/10 19:43:47;;;;;;;1999.90;999.90;;;4.20;99.90;;;;;;4934808;29;20265;-78
2020/12/10 19:46:14;;;;;;;1999.90;999.90;;;4.20;99.90;;;;;;4935064;29;20634;-76
2020/12/10 19:48:42;;;;;;;1999.90;999.90;;;4.30;99.90;;;;;;4934166;29;20229;-75
2020/12/10 19:51:09;;;;;;;1999.90;999.90;;;4.30;99.90;;;;;;4934523;29;20229;-75
2020/12/10 19:53:37;;;;;;;1999.90;999.90;;;4.30;99.90;;;;;;4934177;29;20664;-75
2020/12/10 19:56:04;;;;;;;1999.90;999.90;;;4.20;99.90;;;;;;4934432;29;20209;-76
2020/12/10 19:58:40;;;;;;;1999.90;999.90;;;4.20;99.90;;;;;;4934077;29;20206;-75
2020/12/10 20:01:07;;;;;;;1999.90;999.90;;;4.20;99.90;;;;;;4934200;29;20225;-75
2020/12/10 20:03:34;;;;;;;1999.90;999.90;;;4.30;99.90;;;;;;4934269;29;20590;-76
2020/12/10 20:06:01;;;;;;;1999.90;999.90;;;4.30;99.90;;;;;;4934186;29;20237;-75
2020/12/10 20:08:28;;;;;;;1999.90;999.90;;;4.30;99.90;;;;;;4933689;29;20221;-76
2020/12/10 20:11:01;;;;;;;1999.90;999.90;;;4.30;99.90;;;;;;4934540;29;20230;-76
2020/12/10 20:13:28;;;;;;;1999.90;999.90;;;4.30;99.90;;;;;;4934302;29;20647;-76
2020/12/10 20:15:55;;;;;;;1999.90;999.90;;;4.30;99.90;;;;;;4934355;29;20293;-76
2020/12/10 20:18:22;;;;;;;1999.90;999.90;;;4.20;99.90;;;;;;4934159;29;20206;-75
2020/12/10 20:20:50;;;;;;;1999.90;999.90;;;4.00;99.90;;;;;;4933864;29;20229;-76
2020/12/10 20:23:17;;;;;;;1999.90;999.90;;;3.90;99.90;;;;;;4934369;29;20213;-75
2020/12/10 20:25:59;;;;;;;1999.90;999.90;;;3.90;99.90;;;;;;4934246;29;20202;-76
2020/12/10 20:28:26;;;;;;;1999.90;999.90;;;3.80;99.90;;;;;;4934721;29;20269;-76
2020/12/10 20:30:54;;;;;;;1999.90;999.90;;;3.80;99.90;;;;;;4937837;29;20237;-76
2020/12/10 20:33:21;;;;;;;1999.90;999.90;;;3.90;99.90;;;;;;4937973;29;20209;-76
2020/12/10 20:36:03;;;;;;;1999.90;999.90;;;3.90;99.90;;;;;;4937775;29;20210;-75
2020/12/10 20:38:31;;;;;;;1999.90;999.90;;;4.00;99.90;;;;;;4937699;29;20664;-75
2020/12/10 20:40:58;;;;;;;1999.90;999.90;;;4.00;99.90;;;;;;4937519;29;20230;-75
2020/12/10 20:43:26;;;;;;;1999.90;999.90;;;4.10;99.90;;;;;;4937505;29;20202;-76
2020/12/10 20:45:53;;;;;;;1999.90;999.90;;;4.10;99.90;;;;;;4937229;29;20233;-76
2020/12/10 20:48:24;;;;;;;1999.90;999.90;;;3.90;99.90;;;;;;4936945;29;20222;-76
2020/12/10 20:50:51;;;;;;;1999.90;999.90;;;4.10;99.90;;;;;;4937248;29;20225;-76
2020/12/10 20:53:18;;;;;;;1999.90;999.90;;;4.00;99.90;;;;;;4937482;29;20265;-76
2020/12/10 20:55:46;;;;;;;1999.90;999.90;;;3.90;99.90;;;;;;4937113;29;20667;-76
2020/12/10 20:58:13;;;;;;;1999.90;999.90;;;3.90;99.90;;;;;;4937072;29;20206;-76
2020/12/10 21:00:40;;;;;;;1999.90;999.90;;;3.80;99.90;;;;;;4937032;29;20234;-76
2020/12/10 21:03:07;;;;;;;1999.90;999.90;;;3.90;99.90;;;;;;4936987;29;20257;-76
2020/12/10 21:05:34;;;;;;;1999.90;999.90;;;4.00;99.90;;;;;;4937041;29;20505;-76
2020/12/10 21:08:01;;;;;;;1999.90;999.90;;;4.10;99.90;;;;;;4937100;29;20233;-75
2020/12/10 21:10:27;;;;;;;1999.90;999.90;;;4.00;99.90;;;;;;4936605;29;20210;-76
2020/12/10 21:12:55;;;;;;;1999.90;999.90;;;4.10;99.90;;;;;;4934480;29;20256;-76
2020/12/10 21:15:22;;;;;;;1999.90;999.90;;;4.10;99.90;;;;;;4935345;29;20213;-75
2020/12/10 21:17:49;;;;;;;1999.90;999.90;;;4.20;99.90;;;;;;4934384;29;20245;-76
2020/12/10 21:20:16;;;;;;;1999.90;999.90;;;4.00;99.90;;;;;;4934895;29;20209;-76
2020/12/10 21:22:43;;;;;;;1999.90;999.90;;;3.90;99.90;;;;;;4943551;29;20198;-76
2020/12/10 21:25:09;;;;;;;1999.90;999.90;;;4.30;99.90;;;;;;4943020;29;20213;-76
2020/12/10 21:27:36;;;;;;;1999.90;999.90;;;4.10;99.90;;;;;;4942381;29;20217;-76
2020/12/10 21:30:04;;;;;;;1999.90;999.90;;;4.20;99.90;;;;;;4944460;29;20202;-76
2020/12/10 21:32:31;;;;;;;1999.90;999.90;;;4.30;99.90;;;;;;4943582;29;20266;-76
2020/12/10 21:34:58;;;;;;;1999.90;999.90;;;4.30;99.90;;;;;;4946753;29;20225;-76
2020/12/10 21:37:30;;;;;;;1999.90;999.90;;;4.20;99.90;;;;;;4946194;29;20250;-76
2020/12/10 21:39:57;;;;;;;1999.90;999.90;;;4.20;99.90;;;;;;4944285;28;20257;-76
2020/12/10 21:42:28;;;;;;;1999.90;999.90;;;4.10;99.90;;;;;;4942928;29;20222;-76
2020/12/10 21:44:56;;;;;;;1999.90;999.90;;;4.20;99.90;;;;;;4936843;29;20210;-76
2020/12/10 21:47:25;;;;;;;1999.90;999.90;;;4.30;99.90;;;;;;4936817;29;20249;-78
2020/12/10 21:49:53;;;;;;;1999.90;999.90;;;4.40;99.90;;;;;;4936348;29;20791;-75
2020/12/10 21:52:19;;;;;;;1999.90;999.90;;;4.50;99.90;;;;;;4936434;29;20233;-76
2020/12/10 21:54:48;;;;;;;1999.90;999.90;;;4.40;99.90;;;;;;4935449;29;20210;-76
2020/12/10 21:57:15;;;;;;;1999.90;999.90;;;4.30;99.90;;;;;;4934318;29;20202;-76
2020/12/10 21:59:42;;;;;;;1999.90;999.90;;;4.00;99.90;;;;;;4934601;29;20214;-75
